Time,TemperatureF,DewpointF,PressureIn,WindDirection,WindDirectionDegrees,WindSpeedMPH,WindSpeedGustMPH,Humidity,HourlyPrecipIn,Conditions,Clouds,dailyrainin,SoftwareType,DateUTC
2013-04-19 00:00:00,60.2,51.1,30.16,East,96,0.0,0.0,72,0.00,,,0.00,Wunderground v.1.13,2013-04-18 22:00:00,
2013-04-19 00:10:00,60.4,51.7,30.16,East,96,0.0,0.0,73,0.00,,,0.00,Wunderground v.1.13,2013-04-18 22:10:00,
2013-04-19 00:20:00,60.7,51.2,30.16,East,96,0.0,0.0,71,0.00,,,0.00,Wunderground v.1.13,2013-04-18 22:20:00,
2013-04-19 00:30:00,60.5,51.0,30.16,East,96,0.0,0.0,71,0.00,,,0.00,Wunderground v.1.13,2013-04-18 22:30:00,
2013-04-19 00:35:00,60.2,51.1,30.16,East,96,0.0,0.0,72,0.00,,,0.00,Wunderground v.1.13,2013-04-18 22:35:00,
2013-04-19 00:45:00,59.9,50.8,30.16,East,96,0.0,0.0,72,0.00,,,0.00,Wunderground v.1.13,2013-04-18 22:45:00,
2013-04-19 00:55:00,59.6,51.3,30.16,East,96,0.0,0.0,74,0.00,,,0.00,Wunderground v.1.13,2013-04-18 22:55:00,
2013-04-19 01:05:00,59.5,51.2,30.16,East,96,0.0,0.0,74,0.00,,,0.00,Wunderground v.1.13,2013-04-18 23:05:00,
2013-04-19 01:10:00,59.3,51.0,30.16,East,96,0.0,0.0,74,0.00,,,0.00,Wunderground v.1.13,2013-04-18 23:10:00,
2013-04-19 01:15:00,59.1,51.2,30.16,East,96,0.0,0.0,75,0.00,,,0.00,Wunderground v.1.13,2013-04-18 23:15:00,
2013-04-19 01:20:00,59.0,51.1,30.16,East,96,0.0,0.0,75,0.00,,,0.00,Wunderground v.1.13,2013-04-18 23:20:00,
2013-04-19 01:25:00,59.0,51.1,30.15,East,96,0.0,0.0,75,0.00,,,0.00,Wunderground v.1.13,2013-04-18 23:25:00,
2013-04-19 01:35:00,59.2,51.3,30.15,East,96,0.0,0.0,75,0.00,,,0.00,Wunderground v.1.13,2013-04-18 23:35:00,
2013-04-19 01:40:00,59.1,51.2,30.15,East,96,0.0,0.0,75,0.00,,,0.00,Wunderground v.1.13,2013-04-18 23:40:00,
2013-04-19 01:50:00,58.8,50.9,30.15,East,96,0.0,0.0,75,0.00,,,0.00,Wunderground v.1.13,2013-04-18 23:50:00,
2013-04-19 01:55:00,58.6,50.7,30.15,East,96,0.0,0.0,75,0.00,,,0.00,Wunderground v.1.13,2013-04-18 23:55:00,
2013-04-19 02:00:00,58.6,50.7,30.15,East,96,0.0,0.0,75,0.00,,,0.00,Wunderground v.1.13,2013-04-19 00:00:00,
2013-04-19 02:10:00,58.5,50.6,30.15,East,96,0.0,0.0,75,0.00,,,0.00,Wunderground v.1.13,2013-04-19 00:10:00,
2013-04-19 02:15:00,58.5,51.0,30.15,East,96,0.0,0.0,76,0.00,,,0.00,Wunderground v.1.13,2013-04-19 00:15:00,
2013-04-19 02:25:00,58.4,50.5,30.15,East,96,0.0,0.0,75,0.00,,,0.00,Wunderground v.1.13,2013-04-19 00:25:00,
2013-04-19 02:30:00,58.4,50.5,30.15,East,96,0.0,0.0,75,0.00,,,0.00,Wunderground v.1.13,2013-04-19 00:30:00,
2013-04-19 02:40:00,58.4,50.5,30.15,East,96,0.0,0.0,75,0.00,,,0.00,Wunderground v.1.13,2013-04-19 00:40:00,
2013-04-19 02:45:00,58.2,50.0,30.15,East,96,0.0,1.0,74,0.00,,,0.00,Wunderground v.1.13,2013-04-19 00:45:00,
2013-04-19 02:55:00,57.8,49.9,30.14,East,96,0.0,0.0,75,0.00,,,0.00,Wunderground v.1.13,2013-04-19 00:55:00,
2013-04-19 03:00:00,57.7,49.8,30.14,East,96,0.0,0.0,75,0.00,,,0.00,Wunderground v.1.13,2013-04-19 01:00:00,
2013-04-19 03:10:00,57.6,49.7,30.14,East,96,0.0,0.0,75,0.00,,,0.00,Wunderground v.1.13,2013-04-19 01:10:00,
2013-04-19 03:20:00,57.3,49.4,30.14,East,96,0.0,0.0,75,0.00,,,0.00,Wunderground v.1.13,2013-04-19 01:20:00,
2013-04-19 03:25:00,57.2,49.3,30.14,East,96,0.0,0.0,75,0.00,,,0.00,Wunderground v.1.13,2013-04-19 01:25:00,
2013-04-19 03:30:00,57.2,49.3,30.14,East,96,0.0,0.0,75,0.00,,,0.00,Wunderground v.1.13,2013-04-19 01:30:00,
2013-04-19 03:40:00,57.1,49.2,30.14,East,96,0.0,0.0,75,0.00,,,0.00,Wunderground v.1.13,2013-04-19 01:40:00,
2013-04-19 03:45:00,57.2,49.3,30.14,East,96,0.0,0.0,75,0.00,,,0.00,Wunderground v.1.13,2013-04-19 01:45:00,
2013-04-19 03:55:00,57.1,49.2,30.14,East,96,0.0,0.0,75,0.00,,,0.00,Wunderground v.1.13,2013-04-19 01:55:00,
2013-04-19 04:00:00,57.0,49.2,30.14,East,96,0.0,0.0,75,0.00,,,0.00,Wunderground v.1.13,2013-04-19 02:00:00,
2013-04-19 04:10:00,57.2,49.3,30.13,East,96,0.0,0.0,75,0.00,,,0.00,Wunderground v.1.13,2013-04-19 02:10:00,
2013-04-19 04:15:00,57.4,49.5,30.13,East,96,0.0,0.0,75,0.00,,,0.00,Wunderground v.1.13,2013-04-19 02:15:00,
2013-04-19 04:20:00,57.5,49.6,30.13,East,96,0.0,0.0,75,0.00,,,0.00,Wunderground v.1.13,2013-04-19 02:20:00,
2013-04-19 04:25:00,57.9,50.7,30.13,East,96,0.0,0.0,77,0.00,,,0.00,Wunderground v.1.13,2013-04-19 02:25:00,
2013-04-19 04:35:00,58.5,52.7,30.13,East,96,0.0,0.0,81,0.00,,,0.00,Wunderground v.1.13,2013-04-19 02:35:00,
2013-04-19 04:40:00,58.2,52.7,30.13,East,96,0.0,0.0,82,0.00,,,0.00,Wunderground v.1.13,2013-04-19 02:40:00,
2013-04-19 04:50:00,57.2,52.1,30.13,East,96,0.0,0.0,83,0.00,,,0.00,Wunderground v.1.13,2013-04-19 02:50:00,
2013-04-19 04:55:00,56.9,51.8,30.12,East,96,0.0,0.0,83,0.00,,,0.00,Wunderground v.1.13,2013-04-19 02:55:00,
2013-04-19 05:00:00,56.7,51.9,30.13,East,96,0.0,0.0,84,0.00,,,0.00,Wunderground v.1.13,2013-04-19 03:00:00,
2013-04-19 05:10:00,56.6,52.1,30.12,East,96,0.0,0.0,85,0.00,,,0.00,Wunderground v.1.13,2013-04-19 03:10:00,
2013-04-19 05:15:00,56.4,51.9,30.12,East,96,0.0,0.0,85,0.00,,,0.00,Wunderground v.1.13,2013-04-19 03:15:00,
2013-04-19 05:25:00,55.8,51.7,30.12,East,91,0.0,0.0,86,0.00,,,0.00,Wunderground v.1.13,2013-04-19 03:25:00,
2013-04-19 05:30:00,55.5,51.7,30.12,East,90,0.0,1.0,87,0.00,,,0.00,Wunderground v.1.13,2013-04-19 03:30:00,
2013-04-19 05:40:00,55.6,52.4,30.12,East,89,0.0,0.0,89,0.00,,,0.00,Wunderground v.1.13,2013-04-19 03:40:00,
2013-04-19 05:50:00,55.4,53.1,30.12,East,88,0.0,0.0,92,0.00,,,0.00,Wunderground v.1.13,2013-04-19 03:50:00,
2013-04-19 05:55:00,55.4,52.5,30.13,East,88,0.0,0.0,90,0.00,,,0.00,Wunderground v.1.13,2013-04-19 03:55:00,
2013-04-19 06:00:00,55.5,52.6,30.13,East,88,0.0,0.0,90,0.00,,,0.00,Wunderground v.1.13,2013-04-19 04:00:00,
2013-04-19 06:05:00,55.6,53.0,30.12,East,88,0.0,0.0,91,0.00,,,0.00,Wunderground v.1.13,2013-04-19 04:05:00,
2013-04-19 06:10:00,55.9,53.3,30.12,East,87,0.0,1.0,91,0.00,,,0.00,Wunderground v.1.13,2013-04-19 04:10:00,
2013-04-19 06:15:00,56.0,53.4,30.13,East,87,0.0,0.0,91,0.00,,,0.00,Wunderground v.1.13,2013-04-19 04:15:00,
2013-04-19 06:25:00,56.0,53.7,30.12,East,86,0.0,0.0,92,0.00,,,0.00,Wunderground v.1.13,2013-04-19 04:25:00,
2013-04-19 06:30:00,56.1,53.8,30.12,East,85,0.0,0.0,92,0.00,,,0.00,Wunderground v.1.13,2013-04-19 04:30:00,
2013-04-19 06:35:00,56.2,53.9,30.13,North,5,0.0,0.0,92,0.00,,,0.00,Wunderground v.1.13,2013-04-19 04:35:00,
2013-04-19 06:40:00,56.3,54.0,30.13,North,5,0.0,0.0,92,0.00,,,0.00,Wunderground v.1.13,2013-04-19 04:40:00,
2013-04-19 06:45:00,56.4,54.1,30.13,NNE,24,0.0,0.0,92,0.00,,,0.00,Wunderground v.1.13,2013-04-19 04:45:00,
2013-04-19 06:50:00,56.5,54.2,30.13,NNE,28,0.0,0.0,92,0.00,,,0.00,Wunderground v.1.13,2013-04-19 04:50:00,
2013-04-19 07:00:00,56.4,54.4,30.13,NNE,29,0.0,0.0,93,0.00,,,0.00,Wunderground v.1.13,2013-04-19 05:00:00,
2013-04-19 07:10:00,56.4,54.4,30.13,NNE,29,0.0,0.0,93,0.00,,,0.00,Wunderground v.1.13,2013-04-19 05:10:00,
2013-04-19 07:15:00,56.4,54.4,30.13,NNE,29,0.0,0.0,93,0.00,,,0.00,Wunderground v.1.13,2013-04-19 05:15:00,
2013-04-19 07:20:00,56.4,54.4,30.13,NNE,29,0.0,0.0,93,0.00,,,0.00,Wunderground v.1.13,2013-04-19 05:20:00,
2013-04-19 07:30:00,56.5,54.5,30.13,NNE,29,0.0,0.0,93,0.00,,,0.00,Wunderground v.1.13,2013-04-19 05:30:00,
2013-04-19 07:35:00,56.6,54.6,30.13,NNE,30,0.0,0.0,93,0.00,,,0.00,Wunderground v.1.13,2013-04-19 05:35:00,
2013-04-19 07:45:00,56.8,54.8,30.14,NNE,29,0.0,0.0,93,0.00,,,0.00,Wunderground v.1.13,2013-04-19 05:45:00,
2013-04-19 07:50:00,56.7,54.7,30.14,NNE,29,0.0,0.0,93,0.00,,,0.00,Wunderground v.1.13,2013-04-19 05:50:00,
2013-04-19 07:55:00,56.6,54.6,30.13,NNE,29,0.0,0.0,93,0.00,,,0.00,Wunderground v.1.13,2013-04-19 05:55:00,
2013-04-19 08:05:00,56.4,54.4,30.13,NNE,29,0.0,0.0,93,0.00,,,0.00,Wunderground v.1.13,2013-04-19 06:05:00,
2013-04-19 08:10:00,56.5,54.5,30.13,NNE,28,0.0,0.0,93,0.00,,,0.00,Wunderground v.1.13,2013-04-19 06:10:00,
2013-04-19 08:20:00,56.9,54.6,30.14,NNE,29,0.0,0.0,92,0.00,,,0.00,Wunderground v.1.13,2013-04-19 06:20:00,
2013-04-19 08:25:00,57.1,54.8,30.14,NNE,29,0.0,0.0,92,0.00,,,0.00,Wunderground v.1.13,2013-04-19 06:25:00,
2013-04-19 08:30:00,57.7,55.1,30.14,NNE,29,0.0,0.0,91,0.00,,,0.00,Wunderground v.1.13,2013-04-19 06:30:00,
2013-04-19 08:40:00,59.1,54.9,30.14,NNE,29,0.0,0.0,86,0.00,,,0.00,Wunderground v.1.13,2013-04-19 06:40:00,
2013-04-19 08:50:00,60.9,54.0,30.14,NNE,31,0.0,0.0,78,0.00,,,0.00,Wunderground v.1.13,2013-04-19 06:50:00,
2013-04-19 09:00:00,62.4,53.6,30.14,NNE,31,0.0,0.0,73,0.00,,,0.00,Wunderground v.1.13,2013-04-19 07:00:00,
2013-04-19 09:10:00,63.6,53.2,30.15,East,80,0.0,0.0,69,0.00,,,0.00,Wunderground v.1.13,2013-04-19 07:10:00,
2013-04-19 09:20:00,64.9,52.8,30.15,ENE,61,0.0,0.0,65,0.00,,,0.00,Wunderground v.1.13,2013-04-19 07:20:00,
2013-04-19 09:25:00,65.2,52.7,30.15,ENE,67,0.0,0.0,64,0.00,,,0.00,Wunderground v.1.13,2013-04-19 07:25:00,
2013-04-19 09:35:00,66.0,52.6,30.15,East,80,0.0,0.0,62,0.00,,,0.00,Wunderground v.1.13,2013-04-19 07:35:00,
2013-04-19 09:40:00,66.1,52.3,30.15,East,82,0.0,0.0,61,0.00,,,0.00,Wunderground v.1.13,2013-04-19 07:40:00,
2013-04-19 09:50:00,66.3,52.4,30.15,ESE,117,0.0,0.0,61,0.00,,,0.00,Wunderground v.1.13,2013-04-19 07:50:00,
2013-04-19 09:55:00,66.5,52.6,30.15,SE,124,0.0,0.0,61,0.00,,,0.00,Wunderground v.1.13,2013-04-19 07:55:00,
2013-04-19 10:05:00,65.9,52.5,30.15,East,82,2.0,9.0,62,0.00,,,0.00,Wunderground v.1.13,2013-04-19 08:05:00,
2013-04-19 10:10:00,66.0,52.6,30.15,East,88,6.0,10.0,62,0.00,,,0.00,Wunderground v.1.13,2013-04-19 08:10:00,
2013-04-19 10:15:00,66.0,52.6,30.15,ENE,74,7.0,7.0,62,0.00,,,0.00,Wunderground v.1.13,2013-04-19 08:15:00,
2013-04-19 10:20:00,66.4,53.0,30.15,East,85,6.0,6.0,62,0.00,,,0.00,Wunderground v.1.13,2013-04-19 08:20:00,
2013-04-19 10:30:00,66.5,53.5,30.15,ENE,63,5.0,10.0,63,0.00,,,0.00,Wunderground v.1.13,2013-04-19 08:30:00,
2013-04-19 10:40:00,66.9,53.0,30.16,ENE,65,6.0,11.0,61,0.00,,,0.00,Wunderground v.1.13,2013-04-19 08:40:00,
2013-04-19 10:45:00,67.0,53.5,30.16,ESE,123,6.0,8.0,62,0.00,,,0.00,Wunderground v.1.13,2013-04-19 08:45:00,
2013-04-19 10:55:00,67.4,53.5,30.15,NE,46,5.0,8.0,61,0.00,,,0.00,Wunderground v.1.13,2013-04-19 08:55:00,
2013-04-19 11:05:00,67.9,54.0,30.16,ENE,61,5.0,9.0,61,0.00,,,0.00,Wunderground v.1.13,2013-04-19 09:05:00,
2013-04-19 11:10:00,67.8,54.3,30.15,East,90,5.0,5.0,62,0.00,,,0.00,Wunderground v.1.13,2013-04-19 09:10:00,
2013-04-19 11:15:00,68.3,53.9,30.15,ENE,71,5.0,7.0,60,0.00,,,0.00,Wunderground v.1.13,2013-04-19 09:15:00,
2013-04-19 11:20:00,68.1,53.2,30.15,ESE,113,5.0,10.0,59,0.00,,,0.00,Wunderground v.1.13,2013-04-19 09:20:00,
2013-04-19 11:30:00,67.8,52.9,30.16,East,85,7.0,7.0,59,0.00,,,0.00,Wunderground v.1.13,2013-04-19 09:30:00,
2013-04-19 11:40:00,68.6,53.2,30.16,SE,126,6.0,6.0,58,0.00,,,0.00,Wunderground v.1.13,2013-04-19 09:40:00,
2013-04-19 11:45:00,67.8,52.5,30.16,ESE,118,7.0,7.0,58,0.00,,,0.00,Wunderground v.1.13,2013-04-19 09:45:00,
2013-04-19 11:55:00,68.3,52.9,30.15,ESE,117,7.0,12.0,58,0.00,,,0.00,Wunderground v.1.13,2013-04-19 09:55:00,
2013-04-19 12:05:00,68.0,53.1,30.15,East,80,8.0,8.0,59,0.00,,,0.00,Wunderground v.1.13,2013-04-19 10:05:00,
2013-04-19 12:10:00,68.1,53.2,30.16,East,94,8.0,9.0,59,0.00,,,0.00,Wunderground v.1.13,2013-04-19 10:10:00,
2013-04-19 12:15:00,67.9,53.0,30.16,SE,138,8.0,8.0,59,0.00,,,0.00,Wunderground v.1.13,2013-04-19 10:15:00,
2013-04-19 12:20:00,68.5,53.6,30.16,ESE,104,8.0,8.0,59,0.00,,,0.00,Wunderground v.1.13,2013-04-19 10:20:00,
2013-04-19 12:25:00,67.7,52.9,30.16,NE,39,8.0,14.0,59,0.00,,,0.00,Wunderground v.1.13,2013-04-19 10:25:00,
2013-04-19 12:30:00,66.1,51.8,30.15,East,90,7.0,13.0,60,0.00,,,0.00,Wunderground v.1.13,2013-04-19 10:30:00,
2013-04-19 12:35:00,66.4,52.5,30.15,ENE,68,8.0,12.0,61,0.00,,,0.00,Wunderground v.1.13,2013-04-19 10:35:00,
2013-04-19 12:40:00,67.1,52.3,30.15,ENE,68,9.0,18.0,59,0.00,,,0.00,Wunderground v.1.13,2013-04-19 10:40:00,
2013-04-19 12:45:00,66.6,52.3,30.14,East,90,6.0,12.0,60,0.00,,,0.00,Wunderground v.1.13,2013-04-19 10:45:00,
2013-04-19 12:50:00,66.6,52.7,30.14,East,90,7.0,9.0,61,0.00,,,0.00,Wunderground v.1.13,2013-04-19 10:50:00,
2013-04-19 12:55:00,66.5,52.2,30.14,East,90,7.0,10.0,60,0.00,,,0.00,Wunderground v.1.13,2013-04-19 10:55:00,
2013-04-19 13:00:00,66.5,52.2,30.14,ENE,68,7.0,10.0,60,0.00,,,0.00,Wunderground v.1.13,2013-04-19 11:00:00,
2013-04-19 13:05:00,67.2,52.4,30.14,ESE,113,10.0,14.0,59,0.00,,,0.00,Wunderground v.1.13,2013-04-19 11:05:00,
2013-04-19 15:10:00,66.1,51.8,30.14,ENE,60,8.0,8.0,60,0.00,,,0.00,Wunderground v.1.13,2013-04-19 13:10:00,
2013-04-19 15:15:00,66.4,52.1,30.14,ENE,69,9.0,9.0,60,0.00,,,0.00,Wunderground v.1.13,2013-04-19 13:15:00,
2013-04-19 15:25:00,65.6,51.3,30.14,ENE,73,9.0,9.0,60,0.00,,,0.00,Wunderground v.1.13,2013-04-19 13:25:00,
2013-04-19 15:35:00,65.3,51.9,30.14,East,90,9.0,11.0,62,0.00,,,0.00,Wunderground v.1.13,2013-04-19 13:35:00,
2013-04-19 15:40:00,65.3,51.5,30.14,ESE,119,9.0,11.0,61,0.00,,,0.00,Wunderground v.1.13,2013-04-19 13:40:00,
2013-04-19 15:50:00,65.0,52.1,30.14,ENE,61,8.0,10.0,63,0.00,,,0.00,Wunderground v.1.13,2013-04-19 13:50:00,
2013-04-19 16:00:00,64.3,51.9,30.14,ENE,71,10.0,10.0,64,0.00,,,0.00,Wunderground v.1.13,2013-04-19 14:00:00,
2013-04-19 16:10:00,64.6,51.3,30.14,ENE,71,8.0,10.0,62,0.00,,,0.00,Wunderground v.1.13,2013-04-19 14:10:00,
2013-04-19 16:15:00,64.5,51.2,30.14,ESE,117,10.0,10.0,62,0.00,,,0.00,Wunderground v.1.13,2013-04-19 14:15:00,
2013-04-19 16:25:00,64.4,51.1,30.14,East,91,10.0,13.0,62,0.00,,,0.00,Wunderground v.1.13,2013-04-19 14:25:00,
2013-04-19 16:35:00,65.0,51.7,30.14,ENE,59,8.0,8.0,62,0.00,,,0.00,Wunderground v.1.13,2013-04-19 14:35:00,
2013-04-19 16:40:00,64.5,49.8,30.14,ESE,115,8.0,16.0,59,0.00,,,0.00,Wunderground v.1.13,2013-04-19 14:40:00,
2013-04-19 16:50:00,64.0,49.8,30.15,ENE,65,9.0,14.0,60,0.00,,,0.00,Wunderground v.1.13,2013-04-19 14:50:00,
2013-04-19 17:00:00,64.3,50.1,30.15,ESE,115,9.0,12.0,60,0.00,,,0.00,Wunderground v.1.13,2013-04-19 15:00:00,
2013-04-19 17:10:00,63.6,50.8,30.15,NE,47,8.0,12.0,63,0.00,,,0.00,Wunderground v.1.13,2013-04-19 15:10:00,
2013-04-19 17:20:00,63.8,51.0,30.15,East,94,8.0,10.0,63,0.00,,,0.00,Wunderground v.1.13,2013-04-19 15:20:00,
2013-04-19 17:25:00,63.9,50.6,30.16,ESE,111,8.0,13.0,62,0.00,,,0.00,Wunderground v.1.13,2013-04-19 15:25:00,
2013-04-19 17:35:00,63.1,50.3,30.16,SE,128,8.0,8.0,63,0.00,,,0.00,Wunderground v.1.13,2013-04-19 15:35:00,
2013-04-19 17:45:00,63.3,51.3,30.16,SE,126,7.0,16.0,65,0.00,,,0.00,Wunderground v.1.13,2013-04-19 15:45:00,
2013-04-19 17:50:00,62.9,51.0,30.15,East,98,8.0,8.0,65,0.00,,,0.00,Wunderground v.1.13,2013-04-19 15:50:00,
2013-04-19 18:00:00,62.2,50.7,30.16,ESE,108,8.0,8.0,66,0.00,,,0.00,Wunderground v.1.13,2013-04-19 16:00:00,
2013-04-19 18:10:00,61.5,50.4,30.16,SE,136,9.0,9.0,67,0.00,,,0.00,Wunderground v.1.13,2013-04-19 16:10:00,
2013-04-19 18:20:00,61.4,50.7,30.16,ESE,104,9.0,9.0,68,0.00,,,0.00,Wunderground v.1.13,2013-04-19 16:20:00,
2013-04-19 18:30:00,61.1,50.8,30.16,East,101,7.0,7.0,69,0.00,,,0.00,Wunderground v.1.13,2013-04-19 16:30:00,
2013-04-19 18:40:00,60.4,50.6,30.16,ENE,76,7.0,14.0,70,0.00,,,0.00,Wunderground v.1.13,2013-04-19 16:40:00,
2013-04-19 18:45:00,60.1,50.3,30.17,NE,54,8.0,13.0,70,0.00,,,0.00,Wunderground v.1.13,2013-04-19 16:45:00,
2013-04-19 18:55:00,59.9,50.1,30.17,East,93,8.0,8.0,70,0.00,,,0.00,Wunderground v.1.13,2013-04-19 16:55:00,
2013-04-19 19:05:00,59.8,50.0,30.17,ENE,59,7.0,10.0,70,0.00,,,0.00,Wunderground v.1.13,2013-04-19 17:05:00,
2013-04-19 19:10:00,59.5,50.1,30.17,East,93,8.0,12.0,71,0.00,,,0.00,Wunderground v.1.13,2013-04-19 17:10:00,
2013-04-19 19:15:00,59.5,49.7,30.17,ENE,67,7.0,12.0,70,0.00,,,0.00,Wunderground v.1.13,2013-04-19 17:15:00,
2013-04-19 19:25:00,59.4,49.6,30.17,NNE,28,7.0,14.0,70,0.00,,,0.00,Wunderground v.1.13,2013-04-19 17:25:00,
2013-04-19 19:35:00,59.3,49.1,30.17,East,96,7.0,14.0,69,0.00,,,0.00,Wunderground v.1.13,2013-04-19 17:35:00,
2013-04-19 19:40:00,59.3,49.1,30.18,ENE,76,6.0,9.0,69,0.00,,,0.00,Wunderground v.1.13,2013-04-19 17:40:00,
2013-04-19 19:50:00,58.9,48.7,30.18,ENE,71,8.0,14.0,69,0.00,,,0.00,Wunderground v.1.13,2013-04-19 17:50:00,
2013-04-19 19:55:00,59.0,48.8,30.18,East,95,7.0,7.0,69,0.00,,,0.00,Wunderground v.1.13,2013-04-19 17:55:00,
2013-04-19 20:05:00,58.6,48.5,30.19,East,80,8.0,8.0,69,0.00,,,0.00,Wunderground v.1.13,2013-04-19 18:05:00,
2013-04-19 20:10:00,58.7,48.6,30.19,East,88,7.0,11.0,69,0.00,,,0.00,Wunderground v.1.13,2013-04-19 18:10:00,
2013-04-19 20:20:00,58.3,48.6,30.19,East,84,8.0,13.0,70,0.00,,,0.00,Wunderground v.1.13,2013-04-19 18:20:00,
2013-04-19 20:30:00,58.2,48.5,30.19,ESE,103,7.0,7.0,70,0.00,,,0.00,Wunderground v.1.13,2013-04-19 18:30:00,
2013-04-19 20:40:00,58.1,48.0,30.19,ENE,59,7.0,7.0,69,0.00,,,0.00,Wunderground v.1.13,2013-04-19 18:40:00,
2013-04-19 20:50:00,58.0,47.9,30.19,ESE,118,7.0,9.0,69,0.00,,,0.00,Wunderground v.1.13,2013-04-19 18:50:00,
2013-04-19 20:55:00,57.7,48.0,30.20,ESE,118,7.0,7.0,70,0.00,,,0.00,Wunderground v.1.13,2013-04-19 18:55:00,
2013-04-19 21:05:00,57.6,48.3,30.20,East,80,7.0,11.0,71,0.00,,,0.00,Wunderground v.1.13,2013-04-19 19:05:00,
2013-04-19 21:10:00,57.4,48.1,30.20,East,90,7.0,7.0,71,0.00,,,0.00,Wunderground v.1.13,2013-04-19 19:10:00,
2013-04-19 21:15:00,57.3,48.0,30.20,East,90,8.0,13.0,71,0.00,,,0.00,Wunderground v.1.13,2013-04-19 19:15:00,
2013-04-19 21:25:00,57.3,48.0,30.21,ENE,60,9.0,9.0,71,0.00,,,0.00,Wunderground v.1.13,2013-04-19 19:25:00,
2013-04-19 21:35:00,57.4,48.1,30.21,ENE,58,7.0,10.0,71,0.00,,,0.00,Wunderground v.1.13,2013-04-19 19:35:00,
2013-04-19 21:45:00,57.2,47.9,30.22,ENE,60,7.0,13.0,71,0.00,,,0.00,Wunderground v.1.13,2013-04-19 19:45:00,
2013-04-19 21:50:00,57.3,48.0,30.22,ENE,72,7.0,7.0,71,0.00,,,0.00,Wunderground v.1.13,2013-04-19 19:50:00,
2013-04-19 22:00:00,57.2,47.9,30.22,East,80,6.0,13.0,71,0.00,,,0.00,Wunderground v.1.13,2013-04-19 20:00:00,
2013-04-19 22:10:00,57.1,47.8,30.23,ENE,75,8.0,12.0,71,0.00,,,0.00,Wunderground v.1.13,2013-04-19 20:10:00,
2013-04-19 22:15:00,56.9,48.0,30.23,East,80,8.0,12.0,72,0.00,,,0.00,Wunderground v.1.13,2013-04-19 20:15:00,
2013-04-19 22:25:00,56.6,47.7,30.23,NE,56,9.0,9.0,72,0.00,,,0.00,Wunderground v.1.13,2013-04-19 20:25:00,
2013-04-19 22:30:00,56.6,48.0,30.23,East,80,8.0,8.0,73,0.00,,,0.00,Wunderground v.1.13,2013-04-19 20:30:00,
2013-04-19 22:40:00,56.4,48.2,30.23,SE,129,7.0,12.0,74,0.00,,,0.00,Wunderground v.1.13,2013-04-19 20:40:00,
2013-04-19 22:45:00,56.3,48.1,30.23,NE,34,7.0,9.0,74,0.00,,,0.00,Wunderground v.1.13,2013-04-19 20:45:00,
2013-04-19 22:50:00,56.2,48.4,30.23,ENE,69,7.0,7.0,75,0.00,,,0.00,Wunderground v.1.13,2013-04-19 20:50:00,
2013-04-19 22:55:00,56.3,48.5,30.24,East,101,7.0,13.0,75,0.00,,,0.00,Wunderground v.1.13,2013-04-19 20:55:00,
2013-04-19 23:05:00,56.1,47.9,30.24,NE,42,8.0,11.0,74,0.00,,,0.00,Wunderground v.1.13,2013-04-19 21:05:00,
2013-04-19 23:10:00,56.0,47.8,30.24,East,96,7.0,13.0,74,0.00,,,0.00,Wunderground v.1.13,2013-04-19 21:10:00,
2013-04-19 23:20:00,56.0,47.8,30.24,ENE,69,8.0,8.0,74,0.00,,,0.00,Wunderground v.1.13,2013-04-19 21:20:00,
2013-04-19 23:25:00,56.0,47.8,30.24,East,87,7.0,8.0,74,0.00,,,0.00,Wunderground v.1.13,2013-04-19 21:25:00,
2013-04-19 23:35:00,55.9,47.7,30.24,ESE,114,7.0,7.0,74,0.00,,,0.00,Wunderground v.1.13,2013-04-19 21:35:00,
2013-04-19 23:45:00,56.0,47.5,30.23,ENE,73,7.0,7.0,73,0.00,,,0.00,Wunderground v.1.13,2013-04-19 21:45:00,
2013-04-19 23:50:00,56.0,47.5,30.23,ENE,74,7.0,9.0,73,0.00,,,0.00,Wunderground v.1.13,2013-04-19 21:50:00,